createdAt,value
2023-03-21T00:00:26.531Z,9.358611
2023-03-21T00:01:26.508Z,9.358629
2023-03-21T00:02:26.525Z,9.358577
2023-03-21T00:03:26.568Z,9.358518
2023-03-21T00:04:28.264Z,9.358523
2023-03-21T00:05:26.522Z,9.358582
2023-03-21T00:06:26.449Z,9.358584
2023-03-21T00:07:26.459Z,9.358568
2023-03-21T00:08:26.440Z,9.358477
2023-03-21T00:09:26.426Z,9.358476
2023-03-21T00:11:28.407Z,9.358489
2023-03-21T00:12:26.407Z,9.358565
2023-03-21T00:13:26.404Z,9.358581
2023-03-21T00:14:26.378Z,9.358559
2023-03-21T00:15:30.713Z,9.358521
2023-03-21T00:16:35.309Z,9.358501
2023-03-21T00:17:27.349Z,9.358554
2023-03-21T00:18:26.336Z,9.358593
2023-03-21T00:19:26.383Z,9.358601
2023-03-21T00:20:26.330Z,9.358497
2023-03-21T00:21:55.686Z,9.358500
2023-03-21T00:22:28.290Z,9.358486
2023-03-21T00:23:26.290Z,9.358476
2023-03-21T00:24:26.261Z,9.358479
2023-03-21T00:25:26.248Z,9.358537
2023-03-21T00:26:26.257Z,9.358515
2023-03-21T00:27:45.200Z,9.358447
2023-03-21T00:28:28.226Z,9.358446
2023-03-21T00:29:26.216Z,9.358562
2023-03-21T00:30:26.199Z,9.358589
2023-03-21T00:31:26.191Z,9.358550
2023-03-21T00:32:26.194Z,9.358521
2023-03-21T00:33:26.173Z,9.358478
2023-03-21T00:34:36.650Z,9.358514
2023-03-21T00:36:12.477Z,9.358521
2023-03-21T00:36:28.148Z,9.358532
2023-03-21T00:37:26.122Z,9.358594
2023-03-21T00:38:26.117Z,9.358635
2023-03-21T00:39:26.122Z,9.358646
2023-03-21T00:40:32.933Z,9.358677
2023-03-21T00:41:41.500Z,9.358591
2023-03-21T00:42:28.073Z,9.358559
2023-03-21T00:43:26.059Z,9.358577
2023-03-21T00:44:26.047Z,9.358507
2023-03-21T00:45:26.040Z,9.358634
2023-03-21T00:46:32.963Z,9.358515
2023-03-21T00:47:28.056Z,9.358512
2023-03-21T00:48:26.073Z,9.358526
2023-03-21T00:49:26.010Z,9.358470
2023-03-21T00:50:25.975Z,9.358512
2023-03-21T00:51:26.002Z,9.358523
2023-03-21T00:52:39.819Z,9.358481
2023-03-21T00:53:27.945Z,9.358570
2023-03-21T00:54:25.949Z,9.358583
2023-03-21T00:55:25.927Z,9.358550
2023-03-21T00:56:25.930Z,9.358522
2023-03-21T00:57:37.991Z,9.358507
2023-03-21T00:58:27.915Z,9.358491
2023-03-21T00:59:25.933Z,9.358636
2023-03-21T01:00:25.902Z,9.358653
2023-03-21T01:01:25.874Z,9.358685
2023-03-21T01:02:25.880Z,9.358642
2023-03-21T01:03:25.840Z,9.358582
2023-03-21T01:04:25.862Z,9.358594
2023-03-21T01:05:25.832Z,9.358591
2023-03-21T01:06:25.818Z,9.358515
2023-03-21T01:07:25.804Z,9.358511
2023-03-21T01:08:31.170Z,9.358484
2023-03-21T01:09:27.803Z,9.358556
2023-03-21T01:10:25.779Z,9.358599
2023-03-21T01:11:25.754Z,9.358538
2023-03-21T01:12:25.766Z,9.358501
2023-03-21T01:13:25.743Z,9.358494
2023-03-21T01:14:26.736Z,9.358541
2023-03-21T01:15:25.738Z,9.358607
2023-03-21T01:16:25.786Z,9.358704
2023-03-21T01:17:25.696Z,9.358717
2023-03-21T01:18:25.684Z,9.358710
2023-03-21T01:19:37.574Z,9.358668
2023-03-21T01:20:27.668Z,9.358523
2023-03-21T01:21:25.648Z,9.358516
2023-03-21T01:22:25.652Z,9.358497
2023-03-21T01:23:25.640Z,9.358549
2023-03-21T01:24:25.632Z,9.358576
2023-03-21T01:25:25.620Z,9.358549
2023-03-21T01:26:25.606Z,9.358524
2023-03-21T01:27:25.608Z,9.358558
2023-03-21T01:28:25.583Z,9.358572
2023-03-21T01:29:25.595Z,9.358629
2023-03-21T01:30:28.712Z,9.358670
2023-03-21T01:31:26.607Z,9.358612
2023-03-21T01:32:25.554Z,9.358601
2023-03-21T01:33:25.525Z,9.358603
2023-03-21T01:34:25.549Z,9.358597
2023-03-21T01:35:26.920Z,9.358610
2023-03-21T01:36:26.277Z,9.358636
2023-03-21T01:37:25.501Z,9.358682
2023-03-21T01:38:25.479Z,9.358618
2023-03-21T01:39:25.470Z,9.358583
2023-03-21T01:40:25.454Z,9.358610
2023-03-21T01:41:33.493Z,9.358553
2023-03-21T01:42:27.448Z,9.358555
2023-03-21T01:43:25.434Z,9.358589
2023-03-21T01:44:25.417Z,9.358590
2023-03-21T01:45:25.431Z,9.358602
2023-03-21T01:46:25.482Z,9.358550
2023-03-21T01:47:25.393Z,9.358471
2023-03-21T01:48:25.371Z,9.358516
2023-03-21T01:49:25.380Z,9.358473
2023-03-21T01:50:25.345Z,9.358447
2023-03-21T01:51:25.347Z,9.358487
2023-03-21T01:52:38.280Z,9.358549
2023-03-21T01:53:27.309Z,9.358621
2023-03-21T01:54:25.307Z,9.358541
2023-03-21T01:55:25.304Z,9.358532
2023-03-21T01:56:25.294Z,9.358551
2023-03-21T01:57:29.975Z,9.358502
2023-03-21T01:58:27.273Z,9.358519
2023-03-21T01:59:25.269Z,9.358642
2023-03-21T02:00:25.246Z,9.358558
2023-03-21T02:01:25.372Z,9.358548
2023-03-21T02:02:25.240Z,9.358569
2023-03-21T02:03:35.255Z,9.358576
2023-03-21T02:04:27.247Z,9.358530
2023-03-21T02:05:25.215Z,9.358567
2023-03-21T02:06:25.184Z,9.358576
2023-03-21T02:07:25.175Z,9.358533
2023-03-21T02:08:36.807Z,9.358609
2023-03-21T02:09:27.146Z,9.358650
2023-03-21T02:10:25.160Z,9.358573
2023-03-21T02:11:25.159Z,9.358540
2023-03-21T02:12:25.112Z,9.358525
2023-03-21T02:13:25.116Z,9.358552
2023-03-21T02:14:29.314Z,9.358545
2023-03-21T02:15:26.089Z,9.358572
2023-03-21T02:16:25.127Z,9.358602
2023-03-21T02:17:25.059Z,9.358592
2023-03-21T02:18:25.061Z,9.358573
2023-03-21T02:19:32.900Z,9.358552
2023-03-21T02:20:27.040Z,9.358600
2023-03-21T02:21:25.036Z,9.358653
2023-03-21T02:22:25.022Z,9.358619
2023-03-21T02:23:25.003Z,9.358603
2023-03-21T02:24:24.999Z,9.358529
2023-03-21T02:25:24.998Z,9.358550
2023-03-21T02:26:28.493Z,9.358548
2023-03-21T02:27:26.975Z,9.358624
2023-03-21T02:28:24.959Z,9.358560
2023-03-21T02:29:24.943Z,9.358593
2023-03-21T02:30:49.273Z,9.358720
2023-03-21T02:31:27.010Z,9.358615
2023-03-21T02:32:36.529Z,9.358553
2023-03-21T02:33:26.896Z,9.358533
2023-03-21T02:34:24.911Z,9.358540
2023-03-21T02:35:24.888Z,9.358580
2023-03-21T02:36:24.891Z,9.358637
2023-03-21T02:37:36.724Z,9.358628
2023-03-21T02:38:26.851Z,9.358582
2023-03-21T02:39:24.826Z,9.358598
2023-03-21T02:40:24.831Z,9.358622
2023-03-21T02:41:27.458Z,9.358618
2023-03-21T02:42:24.806Z,9.358598
2023-03-21T02:43:24.810Z,9.358593
2023-03-21T02:44:24.780Z,9.358575
2023-03-21T02:45:24.793Z,9.358567
2023-03-21T02:46:33.260Z,9.358542
2023-03-21T02:47:26.744Z,9.358503
2023-03-21T02:48:31.203Z,9.358556
2023-03-21T02:49:26.741Z,9.358605
2023-03-21T02:50:24.714Z,9.358719
2023-03-21T02:51:24.718Z,9.358704
2023-03-21T02:52:37.320Z,9.358641
2023-03-21T02:53:26.682Z,9.358612
2023-03-21T02:54:38.158Z,9.358614
2023-03-21T02:55:26.674Z,9.358598
2023-03-21T02:56:24.670Z,9.358548
2023-03-21T02:57:31.378Z,9.358623
2023-03-21T02:58:26.640Z,9.358619
2023-03-21T02:59:24.629Z,9.358573
2023-03-21T03:00:24.646Z,9.358639
2023-03-21T03:01:24.638Z,9.358677
2023-03-21T03:02:24.597Z,9.358635
2023-03-21T03:03:34.046Z,9.358571
2023-03-21T03:04:26.612Z,9.358593
2023-03-21T03:05:24.566Z,9.358691
2023-03-21T03:06:24.563Z,9.358627
2023-03-21T03:07:24.542Z,9.358620
2023-03-21T03:08:37.565Z,9.358651
2023-03-21T03:09:26.529Z,9.358685
2023-03-21T03:10:24.520Z,9.358693
2023-03-21T03:11:24.520Z,9.358690
2023-03-21T03:12:24.472Z,9.358645
2023-03-21T03:13:25.484Z,9.358606
2023-03-21T03:15:26.469Z,9.358582
2023-03-21T03:16:24.441Z,9.358562
2023-03-21T03:17:24.596Z,9.358589
2023-03-21T03:18:24.432Z,9.358547
2023-03-21T03:19:24.419Z,9.358583
2023-03-21T03:20:24.405Z,9.358546
2023-03-21T03:21:24.390Z,9.358586
2023-03-21T03:22:24.402Z,9.358658
2023-03-21T03:23:24.386Z,9.358652
2023-03-21T03:24:24.360Z,9.358652
2023-03-21T03:25:36.017Z,9.358654
2023-03-21T03:26:26.355Z,9.358680
2023-03-21T03:27:24.324Z,9.358661
2023-03-21T03:28:24.321Z,9.358616
2023-03-21T03:29:24.319Z,9.358558
2023-03-21T03:30:29.635Z,9.358603
2023-03-21T03:31:26.444Z,9.358553
2023-03-21T03:32:24.283Z,9.358557
2023-03-21T03:33:24.272Z,9.358630
2023-03-21T03:34:24.251Z,9.358661
2023-03-21T03:35:24.264Z,9.358691
2023-03-21T03:36:32.114Z,9.358678
2023-03-21T03:37:26.250Z,9.358584
2023-03-21T03:38:24.222Z,9.358619
2023-03-21T03:39:24.207Z,9.358582
2023-03-21T03:40:24.181Z,9.358537
2023-03-21T03:41:25.568Z,9.358545
2023-03-21T03:42:28.392Z,9.358558
2023-03-21T03:43:25.175Z,9.358548
2023-03-21T03:44:24.158Z,9.358561
2023-03-21T03:45:24.147Z,9.358602
2023-03-21T03:46:24.195Z,9.358583
2023-03-21T03:47:32.794Z,9.358478
2023-03-21T03:48:26.114Z,9.358479
2023-03-21T03:49:24.099Z,9.358508
2023-03-21T03:50:24.096Z,9.358558
2023-03-21T03:51:24.096Z,9.358601
2023-03-21T03:52:24.067Z,9.358624
2023-03-21T03:53:24.039Z,9.358567
2023-03-21T03:54:24.040Z,9.358570
2023-03-21T03:55:24.049Z,9.358555
2023-03-21T03:56:24.015Z,9.358586
2023-03-21T03:57:24.028Z,9.358574
2023-03-21T03:58:29.065Z,9.358615
2023-03-21T03:59:25.997Z,9.358695
2023-03-21T04:00:23.984Z,9.358573
2023-03-21T04:01:23.995Z,9.358526
2023-03-21T04:02:23.994Z,9.358463
2023-03-21T04:03:24.055Z,9.358482
2023-03-21T04:04:23.984Z,9.358586
2023-03-21T04:05:23.940Z,9.358513
2023-03-21T04:06:23.923Z,9.358554
2023-03-21T04:07:23.921Z,9.358533
2023-03-21T04:08:23.933Z,9.358472
2023-03-21T04:09:37.268Z,9.358509
2023-03-21T04:10:25.885Z,9.358523
2023-03-21T04:11:23.922Z,9.358530
2023-03-21T04:12:23.888Z,9.358578
2023-03-21T04:13:23.847Z,9.358548
2023-03-21T04:14:24.561Z,9.358592
2023-03-21T04:15:23.826Z,9.358551
2023-03-21T04:16:23.821Z,9.358528
2023-03-21T04:17:23.812Z,9.358539
2023-03-21T04:18:23.786Z,9.358539
2023-03-21T04:19:23.798Z,9.358521
2023-03-21T04:20:43.401Z,9.358567
2023-03-21T04:21:25.770Z,9.358575
2023-03-21T04:22:23.734Z,9.358626
2023-03-21T04:23:23.727Z,9.358730
2023-03-21T04:24:23.737Z,9.358550
2023-03-21T04:25:32.766Z,9.358462
2023-03-21T04:26:25.698Z,9.358496
2023-03-21T04:27:23.706Z,9.358572
2023-03-21T04:28:23.710Z,9.358612
2023-03-21T04:29:23.673Z,9.358562
2023-03-21T04:30:23.656Z,9.358571
2023-03-21T04:31:26.180Z,9.358553
2023-03-21T04:32:24.651Z,9.358577
2023-03-21T04:33:23.619Z,9.358542
2023-03-21T04:34:23.613Z,9.358525
2023-03-21T04:35:23.631Z,9.358562
2023-03-21T04:36:23.586Z,9.358633
2023-03-21T04:37:23.616Z,9.358562
2023-03-21T04:38:23.569Z,9.358500
2023-03-21T04:39:23.553Z,9.358505
2023-03-21T04:40:23.552Z,9.358467
2023-03-21T04:41:23.552Z,9.358463
2023-03-21T04:42:23.535Z,9.358503
2023-03-21T04:43:23.512Z,9.358540
2023-03-21T04:44:23.506Z,9.358564
2023-03-21T04:45:55.436Z,9.358594
2023-03-21T04:46:23.503Z,9.358609
2023-03-21T04:47:23.512Z,9.358626
2023-03-21T04:48:23.473Z,9.358645
2023-03-21T04:49:23.436Z,9.358585
2023-03-21T04:50:23.464Z,9.358549
2023-03-21T04:51:23.442Z,9.358501
2023-03-21T04:52:25.329Z,9.358479
2023-03-21T04:53:24.409Z,9.358540
2023-03-21T04:54:23.393Z,9.358555
2023-03-21T04:55:23.404Z,9.358540
2023-03-21T04:56:23.374Z,9.358537
2023-03-21T04:57:23.344Z,9.358475
2023-03-21T04:58:23.360Z,9.358521
2023-03-21T04:59:23.357Z,9.358527
2023-03-21T05:00:23.310Z,9.358498
2023-03-21T05:01:23.411Z,9.358442
2023-03-21T05:02:23.326Z,9.358509
2023-03-21T05:03:23.277Z,9.358487
2023-03-21T05:04:23.373Z,9.358496
2023-03-21T05:05:23.288Z,9.358458
2023-03-21T05:06:23.279Z,9.358435
2023-03-21T05:07:23.233Z,9.358531
2023-03-21T05:08:23.260Z,9.358596
2023-03-21T05:09:23.271Z,9.358553
2023-03-21T05:10:23.221Z,9.358484
2023-03-21T05:11:23.240Z,9.358492
2023-03-21T05:12:23.201Z,9.358478
2023-03-21T05:13:23.185Z,9.358504
2023-03-21T05:14:23.197Z,9.358516
2023-03-21T05:15:23.190Z,9.358521
2023-03-21T05:16:23.213Z,9.358490
2023-03-21T05:17:23.243Z,9.358467
2023-03-21T05:18:23.148Z,9.358539
2023-03-21T05:19:23.139Z,9.358541
2023-03-21T05:20:23.129Z,9.358571
2023-03-21T05:21:23.131Z,9.358637
2023-03-21T05:22:23.125Z,9.358581
2023-03-21T05:23:23.086Z,9.358574
2023-03-21T05:24:23.078Z,9.358562
2023-03-21T05:25:23.085Z,9.358562
2023-03-21T05:26:23.072Z,9.358593
2023-03-21T05:27:23.056Z,9.358562
2023-03-21T05:28:23.056Z,9.358623
2023-03-21T05:29:23.054Z,9.358580
2023-03-21T05:30:24.021Z,9.358523
2023-03-21T05:31:23.069Z,9.358550
2023-03-21T05:32:23.026Z,9.358501
2023-03-21T05:33:22.984Z,9.358572
2023-03-21T05:34:22.972Z,9.358604
2023-03-21T05:35:22.981Z,9.358501
2023-03-21T05:36:22.973Z,9.358442
2023-03-21T05:37:22.933Z,9.358389
2023-03-21T05:38:22.931Z,9.358489
2023-03-21T05:39:22.958Z,9.358534
2023-03-21T05:40:22.906Z,9.358461
2023-03-21T05:41:22.926Z,9.358425
2023-03-21T05:42:22.916Z,9.358480
2023-03-21T05:43:22.871Z,9.358433
2023-03-21T05:44:22.874Z,9.358364
2023-03-21T05:45:22.880Z,9.358328
2023-03-21T05:46:22.984Z,9.358470
2023-03-21T05:47:22.819Z,9.358512
2023-03-21T05:48:22.872Z,9.358444
2023-03-21T05:49:22.819Z,9.358488
2023-03-21T05:50:22.798Z,9.358440
2023-03-21T05:51:22.811Z,9.358512
2023-03-21T05:52:22.801Z,9.358520
2023-03-21T05:53:23.327Z,9.358482
2023-03-21T05:54:23.753Z,9.358481
2023-03-21T05:55:22.775Z,9.358481
2023-03-21T05:56:22.759Z,9.358481
2023-03-21T05:57:22.734Z,9.358509
2023-03-21T05:58:22.715Z,9.358505
2023-03-21T05:59:22.722Z,9.358521
2023-03-21T06:00:22.696Z,9.358483
2023-03-21T06:01:22.682Z,9.358514
2023-03-21T06:02:22.697Z,9.358557
2023-03-21T06:03:22.723Z,9.358551
2023-03-21T06:04:22.627Z,9.358558
2023-03-21T06:05:22.648Z,9.358562
2023-03-21T06:06:22.660Z,9.358553
2023-03-21T06:07:22.599Z,9.358489
2023-03-21T06:08:22.599Z,9.358472
2023-03-21T06:09:22.616Z,9.358441
2023-03-21T06:10:22.587Z,9.358501
2023-03-21T06:11:22.577Z,9.358562
2023-03-21T06:12:22.580Z,9.358606
2023-03-21T06:13:22.555Z,9.358568
2023-03-21T06:14:22.547Z,9.358530
2023-03-21T06:15:22.541Z,9.358455
2023-03-21T06:16:22.630Z,9.358495
2023-03-21T06:17:22.509Z,9.358466
2023-03-21T06:18:22.506Z,9.358457
2023-03-21T06:19:22.524Z,9.358459
2023-03-21T06:20:22.472Z,9.358541
2023-03-21T06:21:22.489Z,9.358588
2023-03-21T06:22:22.492Z,9.358553
2023-03-21T06:23:22.425Z,9.358497
2023-03-21T06:24:22.465Z,9.358517
2023-03-21T06:25:22.453Z,9.358510
2023-03-21T06:26:22.451Z,9.358549
2023-03-21T06:27:22.403Z,9.358581
2023-03-21T06:28:22.390Z,9.358416
2023-03-21T06:29:22.397Z,9.358478
2023-03-21T06:30:22.375Z,9.358523
2023-03-21T06:31:22.406Z,9.358527
2023-03-21T06:32:22.372Z,9.358577
2023-03-21T06:33:22.352Z,9.358621
2023-03-21T06:34:22.329Z,9.358656
2023-03-21T06:35:22.290Z,9.358587
2023-03-21T06:36:22.318Z,9.358627
2023-03-21T06:37:22.286Z,9.358690
2023-03-21T06:38:22.277Z,9.358632
2023-03-21T06:39:22.296Z,9.358603
2023-03-21T06:40:22.258Z,9.358580
2023-03-21T06:41:22.224Z,9.358559
2023-03-21T06:42:22.232Z,9.358551
2023-03-21T06:43:22.260Z,9.358463
2023-03-21T06:44:22.208Z,9.358503
2023-03-21T06:45:22.220Z,9.358550
2023-03-21T06:46:22.239Z,9.358566
2023-03-21T06:47:22.161Z,9.358534
2023-03-21T06:48:22.185Z,9.358565
2023-03-21T06:49:22.195Z,9.358598
2023-03-21T06:50:22.154Z,9.358622
2023-03-21T06:51:22.122Z,9.358584
2023-03-21T06:52:22.141Z,9.358552
2023-03-21T06:53:22.105Z,9.358544
2023-03-21T06:54:22.098Z,9.358572
2023-03-21T06:55:22.107Z,9.358583
2023-03-21T06:56:22.086Z,9.358579
2023-03-21T06:57:22.047Z,9.358636
2023-03-21T06:58:22.060Z,9.358566
2023-03-21T06:59:22.061Z,9.358571
2023-03-21T07:00:22.059Z,9.358562
2023-03-21T07:01:22.164Z,9.358559
2023-03-21T07:02:22.049Z,9.358588
2023-03-21T07:03:22.012Z,9.358607
2023-03-21T07:04:22.003Z,9.358629
2023-03-21T07:05:21.993Z,9.358614
2023-03-21T07:06:21.968Z,9.358610
2023-03-21T07:07:21.975Z,9.358565
2023-03-21T07:08:21.924Z,9.358539
2023-03-21T07:09:21.945Z,9.358541
2023-03-21T07:10:21.920Z,9.358505
2023-03-21T07:11:21.908Z,9.358520
2023-03-21T07:12:21.888Z,9.358532
2023-03-21T07:13:21.928Z,9.358487
2023-03-21T07:14:21.881Z,9.358463
2023-03-21T07:15:21.856Z,9.358490
2023-03-21T07:16:21.975Z,9.358482
2023-03-21T07:17:21.826Z,9.358497
2023-03-21T07:18:21.829Z,9.358494
2023-03-21T07:19:21.853Z,9.358437
2023-03-21T07:20:21.821Z,9.358459
2023-03-21T07:21:21.793Z,9.358512
2023-03-21T07:22:21.781Z,9.358521
2023-03-21T07:23:21.819Z,9.358560
2023-03-21T07:24:21.765Z,9.358633
2023-03-21T07:25:21.791Z,9.358555
2023-03-21T07:26:21.743Z,9.358538
2023-03-21T07:27:21.729Z,9.358509
2023-03-21T07:28:21.737Z,9.358539
2023-03-21T07:29:21.734Z,9.358523
2023-03-21T07:30:21.713Z,9.358522
2023-03-21T07:31:21.685Z,9.358535
2023-03-21T07:32:21.666Z,9.358514
2023-03-21T07:33:21.705Z,9.358523
2023-03-21T07:34:21.661Z,9.358576
2023-03-21T07:35:21.636Z,9.358587
2023-03-21T07:36:21.633Z,9.358601
2023-03-21T07:37:21.686Z,9.358579
2023-03-21T07:38:21.649Z,9.358541
2023-03-21T07:39:21.570Z,9.358532
2023-03-21T07:40:21.616Z,9.358586
2023-03-21T07:41:21.599Z,9.358580
2023-03-21T07:42:21.567Z,9.358590
2023-03-21T07:43:21.585Z,9.358574
2023-03-21T07:44:21.546Z,9.358603
2023-03-21T07:45:21.582Z,9.358638
2023-03-21T07:46:21.533Z,9.358687
2023-03-21T07:47:21.526Z,9.358653
2023-03-21T07:48:21.555Z,9.358624
2023-03-21T07:49:21.495Z,9.358601
2023-03-21T07:50:21.470Z,9.358545
2023-03-21T07:51:21.479Z,9.358503
2023-03-21T07:52:21.436Z,9.358472
2023-03-21T07:53:21.450Z,9.358535
2023-03-21T07:54:21.452Z,9.358497
2023-03-21T07:55:21.425Z,9.358587
2023-03-21T07:56:21.424Z,9.358579
2023-03-21T07:57:21.439Z,9.358522
2023-03-21T07:58:21.380Z,9.358532
2023-03-21T07:59:21.408Z,9.358570
2023-03-21T08:00:21.394Z,9.358495
2023-03-21T08:01:21.335Z,9.358560
2023-03-21T08:02:21.403Z,9.358611
2023-03-21T08:03:21.431Z,9.358726
2023-03-21T08:04:21.286Z,9.358685
2023-03-21T08:05:21.332Z,9.358598
2023-03-21T08:06:21.309Z,9.358497
2023-03-21T08:07:21.271Z,9.358536
2023-03-21T08:08:21.266Z,9.358485
2023-03-21T08:09:21.282Z,9.358496
2023-03-21T08:10:21.312Z,9.358552
2023-03-21T08:11:21.215Z,9.358605
2023-03-21T08:12:21.236Z,9.358622
2023-03-21T08:13:21.220Z,9.358592
2023-03-21T08:14:21.265Z,9.358631
2023-03-21T08:15:21.208Z,9.358737
2023-03-21T08:16:21.233Z,9.358735
2023-03-21T08:17:21.192Z,9.358566
2023-03-21T08:18:21.163Z,9.358476
2023-03-21T08:19:21.148Z,9.358485
2023-03-21T08:20:22.152Z,9.358446
2023-03-21T08:21:21.145Z,9.358424
2023-03-21T08:22:21.107Z,9.358459
2023-03-21T08:23:21.103Z,9.358487
2023-03-21T08:24:21.147Z,9.358491
2023-03-21T08:25:21.089Z,9.358550
2023-03-21T08:26:21.099Z,9.358546
2023-03-21T08:27:21.044Z,9.358611
2023-03-21T08:28:21.104Z,9.358607
2023-03-21T08:29:21.036Z,9.358638
2023-03-21T08:30:21.015Z,9.358611
2023-03-21T08:31:21.100Z,9.358665
2023-03-21T08:32:21.026Z,9.358629
2023-03-21T08:33:20.984Z,9.358534
2023-03-21T08:34:20.972Z,9.358588
2023-03-21T08:35:21.009Z,9.358631
2023-03-21T08:36:21.006Z,9.358657
2023-03-21T08:37:20.948Z,9.358552
2023-03-21T08:38:20.927Z,9.358521
2023-03-21T08:39:21.005Z,9.358546
2023-03-21T08:40:20.934Z,9.358579
2023-03-21T08:41:20.886Z,9.358581
2023-03-21T08:42:20.900Z,9.358575
2023-03-21T08:43:20.900Z,9.358537
2023-03-21T08:44:20.871Z,9.358508
2023-03-21T08:45:20.888Z,9.358563
2023-03-21T08:46:20.884Z,9.358651
2023-03-21T08:47:20.809Z,9.358575
2023-03-21T08:48:20.929Z,9.358538
2023-03-21T08:49:20.839Z,9.358526
2023-03-21T08:50:20.806Z,9.358487
2023-03-21T08:51:20.788Z,9.358484
2023-03-21T08:52:20.788Z,9.358488
2023-03-21T08:53:20.744Z,9.358467
2023-03-21T08:54:20.773Z,9.358499
2023-03-21T08:55:20.756Z,9.358525
2023-03-21T08:56:20.754Z,9.358511
2023-03-21T08:57:20.702Z,9.358519
2023-03-21T08:58:20.714Z,9.358570
2023-03-21T08:59:20.714Z,9.358531
2023-03-21T09:00:20.762Z,9.358482
2023-03-21T09:01:20.770Z,9.358500
2023-03-21T09:02:20.658Z,9.358474
2023-03-21T09:03:20.623Z,9.358482
2023-03-21T09:04:20.726Z,9.358489
2023-03-21T09:05:20.666Z,9.358523
2023-03-21T09:06:20.644Z,9.358527
2023-03-21T09:07:20.610Z,9.358493
2023-03-21T09:08:20.591Z,9.358472
2023-03-21T09:09:20.596Z,9.358510
2023-03-21T09:10:22.211Z,9.358537
2023-03-21T09:11:21.559Z,9.358601
2023-03-21T09:12:20.558Z,9.358584
2023-03-21T09:13:20.563Z,9.358574
2023-03-21T09:14:23.891Z,9.358600
2023-03-21T09:15:22.497Z,9.358624
2023-03-21T09:16:20.582Z,9.358623
2023-03-21T09:17:21.268Z,9.358613
2023-03-21T09:18:21.487Z,9.358579
2023-03-21T09:19:20.508Z,9.358581
2023-03-21T09:20:20.475Z,9.358663
2023-03-21T09:21:20.441Z,9.358589
2023-03-21T09:22:20.464Z,9.358565
2023-03-21T09:23:20.465Z,9.358511
2023-03-21T09:24:20.403Z,9.358547
2023-03-21T09:25:20.423Z,9.358583
2023-03-21T09:26:20.394Z,9.358555
2023-03-21T09:27:20.380Z,9.358568
2023-03-21T09:28:20.375Z,9.358529
2023-03-21T09:29:20.417Z,9.358584
2023-03-21T09:30:20.347Z,9.358620
2023-03-21T09:31:20.417Z,9.358592
2023-03-21T09:32:20.360Z,9.358611
2023-03-21T09:33:20.289Z,9.358598
2023-03-21T09:34:20.317Z,9.358618
2023-03-21T09:35:20.519Z,9.358582
2023-03-21T09:36:20.299Z,9.358574
2023-03-21T09:37:20.279Z,9.358598
2023-03-21T09:38:20.252Z,9.358538
2023-03-21T09:39:20.261Z,9.358489
2023-03-21T09:40:20.276Z,9.358532
2023-03-21T09:41:20.208Z,9.358554
2023-03-21T09:42:20.221Z,9.358560
2023-03-21T09:43:20.289Z,9.358610
2023-03-21T09:44:20.213Z,9.358575
2023-03-21T09:45:20.170Z,9.358542
2023-03-21T09:46:20.269Z,9.358543
2023-03-21T09:47:20.173Z,9.358557
2023-03-21T09:48:20.232Z,9.358553
2023-03-21T09:49:20.177Z,9.358584
2023-03-21T09:50:20.512Z,9.358618
2023-03-21T09:51:20.095Z,9.358558
2023-03-21T09:52:20.123Z,9.358565
2023-03-21T09:53:20.106Z,9.358570
2023-03-21T09:54:20.099Z,9.358532
2023-03-21T09:55:20.176Z,9.358545
2023-03-21T09:56:20.224Z,9.358572
2023-03-21T09:57:20.075Z,9.358560
2023-03-21T09:58:20.056Z,9.358575
2023-03-21T09:59:20.061Z,9.358608
2023-03-21T10:00:20.025Z,9.358597
2023-03-21T10:01:20.084Z,9.358562
2023-03-21T10:02:19.992Z,9.358517
2023-03-21T10:03:20.028Z,9.358554
2023-03-21T10:04:20.004Z,9.358585
2023-03-21T10:05:19.977Z,9.358576
2023-03-21T10:06:20.210Z,9.358596
2023-03-21T10:07:19.973Z,9.358599
2023-03-21T10:08:19.947Z,9.358514
2023-03-21T10:09:19.936Z,9.358536
2023-03-21T10:10:19.917Z,9.358562
2023-03-21T10:11:19.884Z,9.358572
2023-03-21T10:12:19.897Z,9.358615
2023-03-21T10:13:19.919Z,9.358592
2023-03-21T10:14:19.890Z,9.358588
2023-03-21T10:15:19.859Z,9.358570
2023-03-21T10:16:19.877Z,9.358572
2023-03-21T10:17:19.862Z,9.358551
2023-03-21T10:18:19.837Z,9.358571
2023-03-21T10:19:19.806Z,9.358556
2023-03-21T10:20:19.831Z,9.358591
2023-03-21T10:21:43.160Z,9.358614
2023-03-21T10:22:21.781Z,9.358617
2023-03-21T10:23:19.837Z,9.358499
2023-03-21T10:24:19.770Z,9.358508
2023-03-21T10:25:19.731Z,9.358531
2023-03-21T10:26:21.396Z,9.358509
2023-03-21T10:27:20.745Z,9.358547
2023-03-21T10:28:19.716Z,9.358550
2023-03-21T10:29:19.749Z,9.358562
2023-03-21T10:30:19.702Z,9.358526
2023-03-21T10:31:19.686Z,9.358535
2023-03-21T10:32:19.678Z,9.358529
2023-03-21T10:33:19.710Z,9.358529
2023-03-21T10:34:19.653Z,9.358533
2023-03-21T10:35:19.624Z,9.358515
2023-03-21T10:36:20.715Z,9.358494
2023-03-21T10:37:19.614Z,9.358524
2023-03-21T10:38:19.593Z,9.358553
2023-03-21T10:39:19.658Z,9.358488
2023-03-21T10:40:19.595Z,9.358514
2023-03-21T10:41:19.568Z,9.358538
2023-03-21T10:42:19.594Z,9.358554
2023-03-21T10:43:19.561Z,9.358518
2023-03-21T10:44:19.556Z,9.358603
2023-03-21T10:45:19.562Z,9.358639
2023-03-21T10:46:52.004Z,9.358645
2023-03-21T10:47:19.674Z,9.358604
2023-03-21T10:48:19.663Z,9.358565
2023-03-21T10:49:19.498Z,9.358629
2023-03-21T10:50:19.572Z,9.358605
2023-03-21T10:51:19.456Z,9.358557
2023-03-21T10:52:19.476Z,9.358517
2023-03-21T10:53:19.432Z,9.358500
2023-03-21T10:54:19.470Z,9.358500
2023-03-21T10:55:19.435Z,9.358558
2023-03-21T10:56:19.421Z,9.358543
2023-03-21T10:57:19.425Z,9.358567
2023-03-21T10:58:19.403Z,9.358562
2023-03-21T10:59:20.480Z,9.358532
2023-03-21T11:00:20.369Z,9.358503
2023-03-21T11:01:19.370Z,9.358577
2023-03-21T11:02:19.403Z,9.358530
2023-03-21T11:03:19.338Z,9.358473
2023-03-21T11:04:19.317Z,9.358505
2023-03-21T11:05:20.774Z,9.358547
2023-03-21T11:06:20.287Z,9.358582
2023-03-21T11:07:19.295Z,9.358646
2023-03-21T11:08:19.277Z,9.358660
2023-03-21T11:09:19.269Z,9.358631
2023-03-21T11:10:28.195Z,9.358549
2023-03-21T11:11:21.243Z,9.358555
2023-03-21T11:12:19.277Z,9.358562
2023-03-21T11:13:19.246Z,9.358561
2023-03-21T11:14:19.208Z,9.358576
2023-03-21T11:15:19.198Z,9.358614
2023-03-21T11:16:19.205Z,9.358628
2023-03-21T11:17:19.225Z,9.358610
2023-03-21T11:18:19.232Z,9.358581
2023-03-21T11:19:19.174Z,9.358595
2023-03-21T11:20:19.156Z,9.358661
2023-03-21T11:21:19.152Z,9.358606
2023-03-21T11:22:19.147Z,9.358580
2023-03-21T11:23:20.736Z,9.358562
2023-03-21T11:24:20.093Z,9.358571
2023-03-21T11:25:19.100Z,9.358583
2023-03-21T11:26:19.090Z,9.358577
2023-03-21T11:27:19.061Z,9.358553
2023-03-21T11:28:19.059Z,9.358562
2023-03-21T11:29:19.444Z,9.358537
2023-03-21T11:30:19.032Z,9.358519
2023-03-21T11:31:19.146Z,9.358532
2023-03-21T11:32:19.012Z,9.358576
2023-03-21T11:33:19.002Z,9.358495
2023-03-21T11:34:19.015Z,9.358481
2023-03-21T11:35:19.910Z,9.358491
2023-03-21T11:36:20.070Z,9.358541
2023-03-21T11:37:18.953Z,9.358570
2023-03-21T11:38:18.952Z,9.358576
2023-03-21T11:39:18.933Z,9.358567
2023-03-21T11:40:18.919Z,9.358578
2023-03-21T11:41:19.505Z,9.358562
2023-03-21T11:42:18.927Z,9.358559
2023-03-21T11:43:18.890Z,9.358548
2023-03-21T11:44:18.894Z,9.358529
2023-03-21T11:45:18.896Z,9.358498
2023-03-21T11:46:18.909Z,9.358482